createdAt,value
2016-02-26T00:00:12.779Z,42.7
2016-02-26T00:01:12.609Z,42.5
2016-02-26T00:02:12.675Z,42.5
2016-02-26T00:03:13.255Z,42.41
2016-02-26T00:04:12.946Z,42.53
2016-02-26T00:05:13.229Z,42.41
2016-02-26T00:06:11.873Z,42.53
2016-02-26T00:07:10.438Z,42.5
2016-02-26T00:08:10.393Z,42.63
2016-02-26T00:09:10.381Z,42.5
2016-02-26T00:10:10.367Z,42.89
2016-02-26T00:11:10.339Z,42.89
2016-02-26T00:12:10.358Z,42.99
2016-02-26T00:13:10.329Z,43.18
2016-02-26T00:14:10.300Z,43.18
2016-02-26T00:15:10.273Z,42.99
2016-02-26T00:16:10.259Z,42.99
2016-02-26T00:17:10.247Z,43.18
2016-02-26T00:18:10.233Z,42.8
2016-02-26T00:19:10.205Z,43.08
2016-02-26T00:20:10.192Z,43.08
2016-02-26T00:21:10.179Z,43.08
2016-02-26T00:22:10.166Z,42.99
2016-02-26T00:23:10.153Z,42.7
2016-02-26T00:24:10.124Z,43.18
2016-02-26T00:25:10.111Z,43.28
2016-02-26T00:26:10.083Z,43.08
2016-02-26T00:27:10.085Z,43.18
2016-02-26T00:28:10.058Z,43.28
2016-02-26T00:29:10.044Z,43.47
2016-02-26T00:30:10.015Z,43.37
2016-02-26T00:31:10.002Z,43.08
2016-02-26T00:32:09.990Z,43.18
2016-02-26T00:33:09.977Z,43.08
2016-02-26T00:34:09.948Z,43.18
2016-02-26T00:35:09.935Z,42.99
2016-02-26T00:36:09.923Z,43.28
2016-02-26T00:37:09.909Z,43.18
2016-02-26T00:38:09.881Z,43.18
2016-02-26T00:39:09.851Z,43.18
2016-02-26T00:40:09.839Z,43.28
2016-02-26T00:41:09.826Z,43.28
2016-02-26T00:42:09.814Z,43.18
2016-02-26T00:43:09.784Z,42.99
2016-02-26T00:44:09.787Z,43.28
2016-02-26T00:45:09.759Z,43.08
2016-02-26T00:46:09.731Z,43.08
2016-02-26T00:47:09.733Z,43.18
2016-02-26T00:48:09.705Z,43.28
2016-02-26T00:49:09.691Z,43.18
2016-02-26T00:50:09.694Z,43.18
2016-02-26T00:51:09.713Z,43.18
2016-02-26T00:52:09.637Z,43.47
2016-02-26T00:53:09.625Z,42.99
2016-02-26T00:54:09.596Z,43.37
2016-02-26T00:55:09.583Z,43.28
2016-02-26T00:56:09.569Z,43.18
2016-02-26T00:57:09.541Z,43.18
2016-02-26T00:58:09.528Z,43.47
2016-02-26T00:59:09.516Z,43.08
2016-02-26T01:00:09.503Z,43.28
2016-02-26T01:01:09.474Z,43.37
2016-02-26T01:02:09.460Z,43.28
2016-02-26T01:03:09.448Z,43.37
2016-02-26T01:04:09.436Z,43.37
2016-02-26T01:05:09.422Z,43.28
2016-02-26T01:06:09.394Z,43.37
2016-02-26T01:07:09.365Z,43.47
2016-02-26T01:08:09.368Z,43.37
2016-02-26T01:09:09.354Z,43.85
2016-02-26T01:10:09.310Z,43.37
2016-02-26T01:11:09.313Z,43.47
2016-02-26T01:12:09.273Z,43.85
2016-02-26T01:13:09.249Z,43.18
2016-02-26T01:14:09.223Z,43.66
2016-02-26T01:15:09.183Z,43.66
2016-02-26T01:16:09.157Z,43.66
2016-02-26T01:17:09.139Z,43.66
2016-02-26T01:18:09.122Z,43.57
2016-02-26T01:19:09.090Z,43.66
2016-02-26T01:20:09.072Z,43.66
2016-02-26T01:21:09.039Z,44.05
2016-02-26T01:22:09.041Z,43.76
2016-02-26T01:23:09.010Z,43.57
2016-02-26T01:24:08.996Z,43.47
2016-02-26T01:25:08.981Z,43.66
2016-02-26T01:26:08.951Z,43.57
2016-02-26T01:27:08.937Z,43.57
2016-02-26T01:28:08.924Z,43.85
2016-02-26T01:29:08.894Z,43.76
2016-02-26T01:30:08.881Z,43.85
2016-02-26T01:31:08.867Z,43.95
2016-02-26T01:32:08.838Z,44.12
2016-02-26T01:33:08.825Z,44.05
2016-02-26T01:34:08.812Z,43.64
2016-02-26T01:35:08.800Z,44.24
2016-02-26T01:36:08.771Z,44.05
2016-02-26T01:37:08.758Z,43.95
2016-02-26T01:38:08.745Z,43.37
2016-02-26T01:39:08.732Z,43.66
2016-02-26T01:40:08.704Z,43.85
2016-02-26T01:41:08.675Z,43.47
2016-02-26T01:42:08.677Z,43.66
2016-02-26T01:43:08.665Z,43.47
2016-02-26T01:44:08.637Z,44.05
2016-02-26T01:45:08.607Z,43.76
2016-02-26T01:46:08.595Z,44.05
2016-02-26T01:47:08.582Z,44.05
2016-02-26T01:48:08.569Z,43.76
2016-02-26T01:49:08.540Z,43.85
2016-02-26T01:50:08.528Z,43.76
2016-02-26T01:51:08.514Z,44.14
2016-02-26T01:52:08.486Z,43.85
2016-02-26T01:53:08.473Z,44.05
2016-02-26T01:54:08.460Z,43.47
2016-02-26T01:55:08.431Z,43.66
2016-02-26T01:56:08.419Z,43.76
2016-02-26T01:57:08.406Z,43.85
2016-02-26T01:58:08.393Z,44.05
2016-02-26T01:59:08.364Z,43.76
2016-02-26T02:00:08.367Z,44.24
2016-02-26T02:01:08.338Z,43.85
2016-02-26T02:02:08.325Z,44.14
2016-02-26T02:03:08.297Z,43.93
2016-02-26T02:04:08.283Z,44.24
2016-02-26T02:05:08.255Z,44.51
2016-02-26T02:06:08.242Z,44.31
2016-02-26T02:07:08.230Z,43.84
2016-02-26T02:08:08.216Z,44.14
2016-02-26T02:09:08.204Z,44.31
2016-02-26T02:10:08.174Z,44.53
2016-02-26T02:11:08.163Z,44.22
2016-02-26T02:12:08.149Z,43.76
2016-02-26T02:13:08.121Z,44.22
2016-02-26T02:14:08.107Z,44.22
2016-02-26T02:15:08.079Z,44.02
2016-02-26T02:16:08.082Z,44.41
2016-02-26T02:17:08.068Z,44.41
2016-02-26T02:18:08.024Z,44.41
2016-02-26T02:19:08.027Z,44.12
2016-02-26T02:20:07.998Z,44.02
2016-02-26T02:21:07.986Z,44.02
2016-02-26T02:22:07.973Z,43.84
2016-02-26T02:23:07.959Z,43.76
2016-02-26T02:24:07.931Z,43.76
2016-02-26T02:25:07.918Z,43.76
2016-02-26T02:26:07.890Z,43.76
2016-02-26T02:27:07.877Z,43.95
2016-02-26T02:28:07.864Z,44.14
2016-02-26T02:29:07.836Z,44.14
2016-02-26T02:30:07.823Z,43.76
2016-02-26T02:31:07.809Z,43.95
2016-02-26T02:32:07.781Z,43.64
2016-02-26T02:33:07.768Z,43.47
2016-02-26T02:34:07.756Z,44.05
2016-02-26T02:35:07.742Z,43.76
2016-02-26T02:36:07.730Z,44.12
2016-02-26T02:37:07.716Z,44.12
2016-02-26T02:38:07.688Z,43.93
2016-02-26T02:39:07.674Z,44.02
2016-02-26T02:40:07.646Z,44.22
2016-02-26T02:41:07.633Z,43.93
2016-02-26T02:42:07.605Z,44.31
2016-02-26T02:43:07.592Z,43.84
2016-02-26T02:44:07.579Z,43.93
2016-02-26T02:45:07.565Z,44.24
2016-02-26T02:46:07.537Z,43.74
2016-02-26T02:47:07.525Z,43.93
2016-02-26T02:48:07.527Z,43.93
2016-02-26T02:49:07.483Z,44.31
2016-02-26T02:50:07.470Z,44.02
2016-02-26T02:51:07.473Z,43.84
2016-02-26T02:52:07.428Z,43.93
2016-02-26T02:53:07.431Z,44.02
2016-02-26T02:54:07.450Z,43.95
2016-02-26T02:55:07.390Z,44.02
2016-02-26T02:56:07.377Z,43.84
2016-02-26T02:57:07.364Z,44.02
2016-02-26T02:58:07.335Z,44.12
2016-02-26T02:59:07.306Z,43.54
2016-02-26T03:00:07.295Z,43.95
2016-02-26T03:01:07.281Z,43.74
2016-02-26T03:02:07.268Z,43.74
2016-02-26T03:03:07.239Z,44.12
2016-02-26T03:04:07.227Z,43.93
2016-02-26T03:05:07.214Z,43.57
2016-02-26T03:06:07.190Z,43.54
2016-02-26T03:07:07.177Z,43.45
2016-02-26T03:08:07.164Z,43.84
2016-02-26T03:09:07.167Z,43.93
2016-02-26T03:10:07.123Z,43.95
2016-02-26T03:11:07.110Z,43.84
2016-02-26T03:12:07.083Z,43.84
2016-02-26T03:13:07.069Z,43.54
2016-02-26T03:14:07.041Z,43.74
2016-02-26T03:15:07.028Z,43.84
2016-02-26T03:16:07.030Z,43.64
2016-02-26T03:17:06.986Z,44.12
2016-02-26T03:18:06.988Z,43.54
2016-02-26T03:19:06.976Z,43.76
2016-02-26T03:20:06.947Z,43.74
2016-02-26T03:21:06.935Z,43.57
2016-02-26T03:22:06.905Z,43.93
2016-02-26T03:23:06.893Z,43.76
2016-02-26T03:24:06.879Z,43.26
2016-02-26T03:25:06.852Z,43.54
2016-02-26T03:26:06.838Z,43.16
2016-02-26T03:27:06.826Z,43.54
2016-02-26T03:28:06.796Z,43.64
2016-02-26T03:29:06.784Z,43.47
2016-02-26T03:30:06.771Z,44.12
2016-02-26T03:31:06.743Z,43.74
2016-02-26T03:32:06.729Z,43.45
2016-02-26T03:33:06.717Z,43.74
2016-02-26T03:34:06.703Z,44.02
2016-02-26T03:35:06.675Z,44.12
2016-02-26T03:36:06.662Z,44.02
2016-02-26T03:37:06.633Z,43.74
2016-02-26T03:38:06.637Z,43.93
2016-02-26T03:39:06.608Z,44.02
2016-02-26T03:40:06.595Z,43.54
2016-02-26T03:41:06.581Z,44.02
2016-02-26T03:42:06.553Z,44.12
2016-02-26T03:43:06.556Z,43.74
2016-02-26T03:44:06.528Z,44.12
2016-02-26T03:45:06.530Z,44.12
2016-02-26T03:46:06.517Z,43.84
2016-02-26T03:47:06.457Z,43.84
2016-02-26T03:48:06.460Z,44.02
2016-02-26T03:49:06.447Z,43.54
2016-02-26T03:50:06.418Z,43.74
2016-02-26T03:51:06.391Z,43.93
2016-02-26T03:52:06.393Z,43.45
2016-02-26T03:53:06.363Z,43.95
2016-02-26T03:54:06.351Z,43.76
2016-02-26T03:55:06.323Z,43.45
2016-02-26T03:56:06.310Z,43.74
2016-02-26T03:57:06.282Z,43.84
2016-02-26T03:58:06.315Z,43.84
2016-02-26T03:59:06.255Z,43.93
2016-02-26T04:00:06.242Z,43.84
2016-02-26T04:01:06.214Z,43.93
2016-02-26T04:02:06.201Z,44.12
2016-02-26T04:03:06.188Z,43.95
2016-02-26T04:04:06.237Z,43.54
2016-02-26T04:05:06.146Z,43.93
2016-02-26T04:06:06.133Z,43.74
2016-02-26T04:07:06.105Z,43.54
2016-02-26T04:08:06.092Z,43.54
2016-02-26T04:09:06.094Z,43.76
2016-02-26T04:10:06.050Z,43.64
2016-02-26T04:11:06.053Z,43.74
2016-02-26T04:12:06.024Z,43.64
2016-02-26T04:13:06.042Z,43.93
2016-02-26T04:14:05.984Z,44.02
2016-02-26T04:15:05.970Z,44.02
2016-02-26T04:16:05.958Z,44.12
2016-02-26T04:17:05.944Z,43.84
2016-02-26T04:18:05.916Z,43.74
2016-02-26T04:19:05.902Z,43.93
2016-02-26T04:20:05.874Z,43.93
2016-02-26T04:21:05.861Z,44.22
2016-02-26T04:22:05.849Z,44.31
2016-02-26T04:23:05.835Z,44.12
2016-02-26T04:24:05.807Z,43.84
2016-02-26T04:25:05.793Z,44.02
2016-02-26T04:26:05.781Z,43.93
2016-02-26T04:27:05.785Z,43.93
2016-02-26T04:28:05.755Z,43.93
2016-02-26T04:29:05.727Z,44.31
2016-02-26T04:30:05.729Z,43.84
2016-02-26T04:31:05.685Z,44.02
2016-02-26T04:32:05.672Z,44.22
2016-02-26T04:33:05.660Z,44.51
2016-02-26T04:34:05.646Z,44.41
2016-02-26T04:35:05.618Z,43.74
2016-02-26T04:36:05.589Z,44.22
2016-02-26T04:37:05.592Z,44.02
2016-02-26T04:38:05.563Z,44.02
2016-02-26T04:39:05.550Z,44.12
2016-02-26T04:40:05.523Z,43.74
2016-02-26T04:41:05.525Z,44.12
2016-02-26T04:42:05.495Z,44.22
2016-02-26T04:43:05.498Z,44.22
2016-02-26T04:44:05.455Z,43.74
2016-02-26T04:45:05.442Z,44.12
2016-02-26T04:46:05.429Z,44.41
2016-02-26T04:47:05.416Z,44.02
2016-02-26T04:48:05.403Z,44.51
2016-02-26T04:49:05.374Z,44.31
2016-02-26T04:50:05.361Z,44.02
2016-02-26T04:51:05.332Z,44.51
2016-02-26T04:52:05.319Z,44.31
2016-02-26T04:53:05.308Z,44.31
2016-02-26T04:54:05.278Z,44.12
2016-02-26T04:55:05.280Z,44.41
2016-02-26T04:56:05.237Z,44.12
2016-02-26T04:57:05.239Z,43.74
2016-02-26T04:58:05.211Z,44.02
2016-02-26T04:59:05.199Z,44.31
2016-02-26T05:00:05.169Z,44.41
2016-02-26T05:01:05.172Z,44.22
2016-02-26T05:02:05.143Z,44.12
2016-02-26T05:03:05.131Z,43.84
2016-02-26T05:04:05.117Z,43.84
2016-02-26T05:05:05.095Z,43.93
2016-02-26T05:06:05.082Z,43.64
2016-02-26T05:07:05.054Z,44.12
2016-02-26T05:08:05.040Z,43.93
2016-02-26T05:09:05.027Z,44.02
2016-02-26T05:10:05.015Z,44.12
2016-02-26T05:11:04.987Z,44.02
2016-02-26T05:12:04.973Z,44.12
2016-02-26T05:13:04.945Z,44.12
2016-02-26T05:14:04.932Z,43.93
2016-02-26T05:15:04.918Z,44.02
2016-02-26T05:16:04.890Z,44.02
2016-02-26T05:17:04.877Z,43.84
2016-02-26T05:18:04.865Z,44.12
2016-02-26T05:19:04.836Z,43.84
2016-02-26T05:20:04.823Z,43.54
2016-02-26T05:21:04.809Z,44.02
2016-02-26T05:22:04.797Z,44.02
2016-02-26T05:23:04.769Z,44.02
2016-02-26T05:24:04.755Z,44.22
2016-02-26T05:25:04.727Z,44.02
2016-02-26T05:26:04.730Z,44.02
2016-02-26T05:27:04.701Z,44.12
2016-02-26T05:28:04.688Z,44.02
2016-02-26T05:29:04.675Z,44.02
2016-02-26T05:30:04.646Z,44.12
2016-02-26T05:31:04.634Z,44.12
2016-02-26T05:32:04.605Z,44.31
2016-02-26T05:33:04.607Z,44.22
2016-02-26T05:34:04.579Z,44.31
2016-02-26T05:35:04.566Z,43.74
2016-02-26T05:36:04.538Z,44.31
2016-02-26T05:37:04.525Z,44.02
2016-02-26T05:38:04.496Z,44.22
2016-02-26T05:39:04.483Z,43.84
2016-02-26T05:40:04.485Z,44.12
2016-02-26T05:41:04.457Z,44.12
2016-02-26T05:42:04.444Z,43.84
2016-02-26T05:43:04.415Z,44.02
2016-02-26T05:44:04.403Z,44.02
2016-02-26T05:45:04.374Z,43.74
2016-02-26T05:46:04.362Z,44.31
2016-02-26T05:47:04.348Z,43.74
2016-02-26T05:48:04.320Z,44.12
2016-02-26T05:49:04.323Z,43.93
2016-02-26T05:50:04.295Z,44.22
2016-02-26T05:51:04.281Z,44.02
2016-02-26T05:52:04.253Z,44.22
2016-02-26T05:53:04.240Z,44.22
2016-02-26T05:54:04.228Z,44.12
2016-02-26T05:55:04.214Z,44.22
2016-02-26T05:56:04.185Z,44.12
2016-02-26T05:57:04.173Z,44.02
2016-02-26T05:58:04.144Z,43.84
2016-02-26T05:59:04.130Z,43.93
2016-02-26T06:00:04.102Z,44.12
2016-02-26T06:01:04.105Z,44.02
2016-02-26T06:02:04.092Z,43.84
2016-02-26T06:03:04.064Z,44.02
2016-02-26T06:04:04.050Z,44.02
2016-02-26T06:05:04.038Z,44.12
2016-02-26T06:06:04.009Z,44.02
2016-02-26T06:07:03.996Z,43.74
2016-02-26T06:08:03.968Z,44.22
2016-02-26T06:09:03.955Z,43.84
2016-02-26T06:10:03.957Z,44.12
2016-02-26T06:11:03.944Z,44.02
2016-02-26T06:12:03.915Z,43.93
2016-02-26T06:13:03.887Z,44.12
2016-02-26T06:14:03.874Z,43.93
2016-02-26T06:15:03.846Z,43.84
2016-02-26T06:16:03.833Z,43.93
2016-02-26T06:17:03.820Z,43.93
2016-02-26T06:18:03.807Z,43.74
2016-02-26T06:19:03.809Z,43.93
2016-02-26T06:20:03.765Z,44.51
2016-02-26T06:21:03.736Z,43.84
2016-02-26T06:22:03.724Z,44.31
2016-02-26T06:23:03.711Z,44.12
2016-02-26T06:24:03.683Z,44.22
2016-02-26T06:25:03.669Z,44.41
2016-02-26T06:26:03.672Z,44.02
2016-02-26T06:27:03.644Z,44.12
2016-02-26T06:28:03.614Z,44.31
2016-02-26T06:29:03.618Z,44.31
2016-02-26T06:30:03.636Z,44.41
2016-02-26T06:31:03.577Z,44.51
2016-02-26T06:32:03.547Z,44.31
2016-02-26T06:33:03.550Z,44.22
2016-02-26T06:34:03.505Z,43.93
2016-02-26T06:35:03.509Z,44.31
2016-02-26T06:36:03.480Z,43.74
2016-02-26T06:37:03.468Z,44.22
2016-02-26T06:38:03.454Z,44.22
2016-02-26T06:39:03.441Z,44.31
2016-02-26T06:40:03.256Z,44.41
2016-02-26T06:41:03.385Z,43.93
2016-02-26T06:42:03.372Z,44.6
2016-02-26T06:43:03.355Z,44.12
2016-02-26T06:44:03.341Z,44.41
2016-02-26T06:45:03.313Z,44.31
2016-02-26T06:46:03.301Z,43.74
2016-02-26T06:47:03.287Z,44.31
2016-02-26T06:48:03.274Z,43.93
2016-02-26T06:49:03.261Z,44.12
2016-02-26T06:50:03.249Z,44.02
2016-02-26T06:51:03.220Z,44.12
2016-02-26T06:52:03.207Z,44.02
2016-02-26T06:53:03.178Z,44.02
2016-02-26T06:54:03.166Z,44.12
2016-02-26T06:55:03.138Z,44.12
2016-02-26T06:56:03.124Z,43.84
2016-02-26T06:57:03.110Z,43.93
2016-02-26T06:58:03.098Z,44.12
2016-02-26T06:59:03.069Z,44.12
2016-02-26T07:00:03.072Z,43.93
2016-02-26T07:01:03.044Z,43.54
2016-02-26T07:02:03.031Z,44.02
2016-02-26T07:03:03.002Z,43.54
2016-02-26T07:04:02.973Z,43.93
2016-02-26T07:05:02.976Z,44.02
2016-02-26T07:06:02.948Z,44.02
2016-02-26T07:07:02.951Z,43.84
2016-02-26T07:08:02.907Z,43.84
2016-02-26T07:09:02.893Z,44.02
2016-02-26T07:10:02.880Z,44.02
2016-02-26T07:11:02.867Z,43.93
2016-02-26T07:12:02.855Z,43.93
2016-02-26T07:13:02.842Z,43.93
2016-02-26T07:14:02.814Z,44.02
2016-02-26T07:15:02.816Z,44.02
2016-02-26T07:16:02.772Z,43.84
2016-02-26T07:17:02.758Z,43.93
2016-02-26T07:18:02.730Z,44.12
2016-02-26T07:19:02.716Z,43.93
2016-02-26T07:20:02.705Z,43.93
2016-02-26T07:21:02.692Z,43.84
2016-02-26T07:22:02.678Z,44.12
2016-02-26T07:23:02.650Z,44.02
2016-02-26T07:24:02.636Z,44.22
2016-02-26T07:25:02.625Z,44.12
2016-02-26T07:26:02.596Z,43.93
2016-02-26T07:27:02.567Z,43.93
2016-02-26T07:28:02.569Z,44.12
2016-02-26T07:29:02.541Z,43.84
2016-02-26T07:30:02.527Z,44.12
2016-02-26T07:31:02.515Z,43.84
2016-02-26T07:32:02.486Z,44.02
2016-02-26T07:33:02.474Z,43.93
2016-02-26T07:34:02.461Z,44.02
2016-02-26T07:35:02.432Z,43.84
2016-02-26T07:36:02.419Z,43.93
2016-02-26T07:37:02.406Z,43.93
2016-02-26T07:38:02.393Z,44.12
2016-02-26T07:39:02.365Z,44.31
2016-02-26T07:40:02.352Z,44.12
2016-02-26T07:41:02.339Z,44.02
2016-02-26T07:42:02.310Z,43.85
2016-02-26T07:43:02.297Z,44.02
2016-02-26T07:44:02.284Z,43.84
2016-02-26T07:45:02.271Z,44.02
2016-02-26T07:46:02.243Z,43.74
2016-02-26T07:47:02.059Z,43.74
2016-02-26T07:48:02.201Z,44.22
2016-02-26T07:49:02.204Z,43.93
2016-02-26T07:50:02.175Z,44.12
2016-02-26T07:51:02.147Z,44.31
2016-02-26T07:52:02.133Z,44.31
2016-02-26T07:53:02.122Z,44.51
2016-02-26T07:54:02.108Z,44.41
2016-02-26T07:55:02.095Z,44.41
2016-02-26T07:56:02.066Z,44.02
2016-02-26T07:57:02.054Z,44.31
2016-02-26T07:58:02.024Z,44.02
2016-02-26T07:59:02.013Z,44.31
2016-02-26T08:00:02.000Z,43.93
2016-02-26T08:01:01.971Z,44.22
2016-02-26T08:02:01.958Z,44.22
2016-02-26T08:03:01.945Z,44.22
2016-02-26T08:04:01.932Z,44.41
2016-02-26T08:05:01.918Z,44.31
2016-02-26T08:06:01.906Z,43.84
2016-02-26T08:07:01.877Z,44.31
2016-02-26T08:08:01.849Z,44.22
2016-02-26T08:09:01.837Z,44.31
2016-02-26T08:10:01.823Z,44.12
2016-02-26T08:11:01.795Z,44.02
2016-02-26T08:12:01.798Z,44.12
2016-02-26T08:13:01.753Z,44.02
2016-02-26T08:14:01.787Z,43.93
2016-02-26T08:15:01.728Z,44.31
2016-02-26T08:16:01.714Z,44.41
2016-02-26T08:17:01.686Z,44.41
2016-02-26T08:18:01.673Z,44.31
2016-02-26T08:19:01.659Z,44.41
2016-02-26T08:20:01.631Z,44.51
2016-02-26T08:21:01.619Z,44.12
2016-02-26T08:22:01.605Z,44.12
2016-02-26T08:23:01.592Z,44.51
2016-02-26T08:24:01.564Z,44.6
2016-02-26T08:25:01.551Z,44.34
2016-02-26T08:26:01.538Z,44.34
2016-02-26T08:27:01.510Z,44.22
2016-02-26T08:28:01.513Z,44.31
2016-02-26T08:29:01.499Z,44.22
2016-02-26T08:30:01.486Z,44.02
2016-02-26T08:31:01.442Z,44.41
2016-02-26T08:32:01.429Z,44.05
2016-02-26T08:33:01.401Z,44.14
2016-02-26T08:34:01.388Z,44.22
2016-02-26T08:35:01.374Z,44.12
2016-02-26T08:36:01.362Z,44.22
2016-02-26T08:37:01.333Z,44.22
2016-02-26T08:38:01.320Z,44.6
2016-02-26T08:39:01.292Z,44.34
2016-02-26T08:40:01.294Z,44.22
2016-02-26T08:41:01.265Z,44.22
2016-02-26T08:42:01.253Z,44.79
2016-02-26T08:43:01.240Z,44.41
2016-02-26T08:44:01.258Z,44.34
2016-02-26T08:45:01.199Z,44.12
2016-02-26T08:46:01.170Z,44.51
2016-02-26T08:47:01.157Z,44.41
2016-02-26T08:48:01.144Z,44.41
2016-02-26T08:49:01.131Z,44.41
2016-02-26T08:50:01.103Z,44.43
2016-02-26T08:51:01.089Z,45.2
2016-02-26T08:52:01.061Z,46.26
2016-02-26T08:53:01.048Z,45.87
2016-02-26T08:54:01.035Z,46.74
2016-02-26T08:55:01.022Z,46.14
2016-02-26T08:56:01.025Z,47
2016-02-26T08:57:00.981Z,47.49
2016-02-26T08:58:00.968Z,46.62
2016-02-26T08:59:00.971Z,46.72
2016-02-26T09:00:00.927Z,46.72
2016-02-26T09:01:00.913Z,46.43
2016-02-26T09:02:00.900Z,46.31
2016-02-26T09:03:00.872Z,46.43
2016-02-26T09:04:00.875Z,45.83
2016-02-26T09:05:00.690Z,46.14
2016-02-26T09:06:00.833Z,45.45
2016-02-26T09:07:00.805Z,45.25
2016-02-26T09:08:00.791Z,45.45
2016-02-26T09:09:00.779Z,44.77
2016-02-26T09:10:00.751Z,45.25
2016-02-26T09:11:00.753Z,44.87
2016-02-26T09:12:00.724Z,44.68
2016-02-26T09:13:00.712Z,44.29
2016-02-26T09:14:00.682Z,44.2
2016-02-26T09:15:00.670Z,43.81
2016-02-26T09:16:00.642Z,40.52
2016-02-26T09:17:00.660Z,39.56
2016-02-26T09:18:00.615Z,39.33
2016-02-26T09:19:00.618Z,39.23
2016-02-26T09:20:00.574Z,39.7
2016-02-26T09:21:00.561Z,40.73
2016-02-26T09:22:00.548Z,41.61
2016-02-26T09:23:00.519Z,41.44
2016-02-26T09:24:00.506Z,41.93
2016-02-26T09:25:00.337Z,41.46
2016-02-26T09:26:00.464Z,41.49
2016-02-26T09:27:00.452Z,41.49
2016-02-26T09:28:00.439Z,41.49
2016-02-26T09:29:00.411Z,41.39
2016-02-26T09:30:00.397Z,41.67
2016-02-26T09:31:00.385Z,41.41
2016-02-26T09:32:00.388Z,41.02
2016-02-26T09:33:00.343Z,40.64
2016-02-26T09:34:00.440Z,40.83
2016-02-26T09:35:00.318Z,40.83
2016-02-26T09:36:00.288Z,40.93
2016-02-26T09:37:00.276Z,41.12
2016-02-26T09:38:00.262Z,40.64
2016-02-26T09:39:00.235Z,40.73
2016-02-26T09:40:00.221Z,40.83
2016-02-26T09:41:00.209Z,41.12
2016-02-26T09:42:00.180Z,40.83
2016-02-26T09:43:00.167Z,40.93
2016-02-26T09:44:00.154Z,40.93
2016-02-26T09:45:00.125Z,40.93
2016-02-26T09:46:00.113Z,41.02
2016-02-26T09:47:00.100Z,41.12
2016-02-26T09:48:00.086Z,41.02
2016-02-26T09:49:00.058Z,41.02
2016-02-26T09:50:00.045Z,40.93
2016-02-26T09:51:00.017Z,41.02
2016-02-26T09:52:00.004Z,41.22
2016-02-26T09:52:59.992Z,41.22
2016-02-26T09:53:59.978Z,40.93
2016-02-26T09:54:59.950Z,41.79
2016-02-26T09:55:59.953Z,41.79
2016-02-26T09:56:59.923Z,41.7
2016-02-26T09:57:59.911Z,41.7
2016-02-26T09:58:59.882Z,41.7
2016-02-26T09:59:59.869Z,41.5
2016-02-26T10:00:59.856Z,41.6
2016-02-26T10:01:59.843Z,41.7
2016-02-26T10:02:59.814Z,41.6
2016-02-26T10:03:59.786Z,41.41
2016-02-26T10:04:59.788Z,41.5
2016-02-26T10:05:59.760Z,41.7
2016-02-26T10:06:59.732Z,41.79
2016-02-26T10:07:59.734Z,41.5
2016-02-26T10:08:59.721Z,41.53
2016-02-26T10:09:59.692Z,41.41
2016-02-26T10:10:59.665Z,41.72
2016-02-26T10:11:59.651Z,41.6
2016-02-26T10:12:59.623Z,41.53
2016-02-26T10:13:59.641Z,41.7
2016-02-26T10:14:59.597Z,41.53
2016-02-26T10:15:59.584Z,41.53
2016-02-26T10:16:59.553Z,41.53
2016-02-26T10:17:59.544Z,41.53
2016-02-26T10:18:59.502Z,41.82
2016-02-26T10:19:59.463Z,42
2016-02-26T10:20:59.440Z,41.82
2016-02-26T10:21:59.416Z,41.91
2016-02-26T10:22:59.384Z,41.91
2016-02-26T10:23:59.382Z,41.6
2016-02-26T10:24:59.347Z,41.91
2016-02-26T10:25:59.331Z,41.62
2016-02-26T10:26:59.298Z,41.62
2016-02-26T10:27:59.284Z,41.53
2016-02-26T10:28:59.285Z,41.62
2016-02-26T10:29:59.239Z,42
2016-02-26T10:30:59.224Z,41.62
2016-02-26T10:31:59.226Z,41.43
2016-02-26T10:32:59.181Z,41.62
2016-02-26T10:33:59.169Z,41.62
2016-02-26T10:34:59.154Z,41.53
2016-02-26T10:35:59.126Z,41.53
2016-02-26T10:36:59.112Z,41.62
2016-02-26T10:37:59.099Z,41.82
2016-02-26T10:38:59.085Z,41.62
2016-02-26T10:39:59.057Z,41.91
2016-02-26T10:40:59.043Z,41.53
2016-02-26T10:41:59.031Z,41.53
2016-02-26T10:42:59.612Z,41.43
2016-02-26T10:43:58.989Z,41.62
2016-02-26T10:44:58.976Z,41.91
2016-02-26T10:45:58.963Z,41.43
2016-02-26T10:46:58.934Z,41.53
2016-02-26T10:47:58.922Z,41.43
2016-02-26T10:48:58.909Z,41.53
2016-02-26T10:49:58.895Z,41.53
2016-02-26T10:50:58.884Z,41.53
2016-02-26T10:51:58.839Z,41.79
2016-02-26T10:52:58.826Z,41.53
2016-02-26T10:53:58.813Z,42
2016-02-26T10:54:58.816Z,41.53
2016-02-26T10:55:58.786Z,41.53
2016-02-26T10:56:58.758Z,41.53
2016-02-26T10:57:58.761Z,41.82
2016-02-26T10:58:58.748Z,41.43
2016-02-26T10:59:58.704Z,41.72
2016-02-26T11:00:58.691Z,41.91
2016-02-26T11:01:58.678Z,41.62
2016-02-26T11:02:58.649Z,41.62
2016-02-26T11:03:58.652Z,41.53
2016-02-26T11:04:58.639Z,41.62
2016-02-26T11:05:58.610Z,41.82
2016-02-26T11:06:58.582Z,41.53
2016-02-26T11:07:58.568Z,41.5
2016-02-26T11:08:58.572Z,41.53
2016-02-26T11:09:58.544Z,41.53
2016-02-26T11:10:58.515Z,41.53
2016-02-26T11:11:58.501Z,41.53
2016-02-26T11:12:58.474Z,41.53
2016-02-26T11:13:58.492Z,41.62
2016-02-26T11:14:58.479Z,41.53
2016-02-26T11:15:58.450Z,41.33
2016-02-26T11:16:58.421Z,41.33
2016-02-26T11:17:58.393Z,41.43
2016-02-26T11:18:58.380Z,41.43
2016-02-26T11:19:58.351Z,41.53
2016-02-26T11:20:58.354Z,41.53
2016-02-26T11:21:58.325Z,41.43
2016-02-26T11:22:58.312Z,41.53
2016-02-26T11:23:58.283Z,41.43
2016-02-26T11:24:58.271Z,41.62
2016-02-26T11:25:58.258Z,41.53
2016-02-26T11:26:58.230Z,41.43
2016-02-26T11:27:58.216Z,41.62
2016-02-26T11:28:58.204Z,41.33
2016-02-26T11:29:58.175Z,41.53
2016-02-26T11:30:58.178Z,41.33
2016-02-26T11:31:58.165Z,41.53
2016-02-26T11:32:58.152Z,41.33
2016-02-26T11:33:58.124Z,41.5
2016-02-26T11:34:58.094Z,41.5
2016-02-26T11:35:58.097Z,41.53
2016-02-26T11:36:58.069Z,41.72
2016-02-26T11:37:58.057Z,41.53
2016-02-26T11:38:58.028Z,41.72
2016-02-26T11:39:58.015Z,41.62
2016-02-26T11:40:58.001Z,41.62
2016-02-26T11:41:57.974Z,41.72
2016-02-26T11:42:57.960Z,41.62
2016-02-26T11:43:57.948Z,41.62
2016-02-26T11:44:57.934Z,41.72
2016-02-26T11:45:57.921Z,41.62
2016-02-26T11:46:57.893Z,41.62
2016-02-26T11:47:57.865Z,41.72
2016-02-26T11:48:57.851Z,41.72
2016-02-26T11:49:57.853Z,41.62
2016-02-26T11:50:57.826Z,41.53
2016-02-26T11:51:57.797Z,41.72
2016-02-26T11:52:57.784Z,41.72
2016-02-26T11:53:57.771Z,41.43
2016-02-26T11:54:57.743Z,41.43
2016-02-26T11:55:57.730Z,41.82
2016-02-26T11:56:57.717Z,41.43
2016-02-26T11:57:57.703Z,41.82
2016-02-26T11:58:57.675Z,41.72
2016-02-26T11:59:56.944Z,41.82
2016-02-26T12:00:57.649Z,41.72
2016-02-26T12:01:57.636Z,41.72
2016-02-26T12:02:57.608Z,41.82
2016-02-26T12:03:57.594Z,41.43
2016-02-26T12:04:57.582Z,41.33
2016-02-26T12:05:57.553Z,41.72
2016-02-26T12:06:57.541Z,41.41
2016-02-26T12:07:57.527Z,41.41
2016-02-26T12:08:57.499Z,41.33
2016-02-26T12:09:57.485Z,41.05
2016-02-26T12:10:57.473Z,40.95
2016-02-26T12:11:57.460Z,41.24
2016-02-26T12:12:57.275Z,41.05
2016-02-26T12:13:57.418Z,41.05
2016-02-26T12:14:57.390Z,40.95
2016-02-26T12:15:57.377Z,40.95
2016-02-26T12:16:57.379Z,41.24
2016-02-26T12:17:57.351Z,41.05
2016-02-26T12:18:57.338Z,41.05
2016-02-26T12:19:57.325Z,41.05
2016-02-26T12:20:57.297Z,40.85
2016-02-26T12:21:57.284Z,41.05
2016-02-26T12:22:57.255Z,41.53
2016-02-26T12:23:57.242Z,40.85
2016-02-26T12:24:57.229Z,41.05
2016-02-26T12:25:57.201Z,40.95
2016-02-26T12:26:57.203Z,41.43
2016-02-26T12:27:57.175Z,40.95
2016-02-26T12:28:57.162Z,41.05
2016-02-26T12:29:57.133Z,40.85
2016-02-26T12:30:57.120Z,40.85
2016-02-26T12:31:57.092Z,40.76
2016-02-26T12:32:57.080Z,40.95
2016-02-26T12:33:57.066Z,40.66
2016-02-26T12:34:57.053Z,40.76
2016-02-26T12:35:57.040Z,40.66
2016-02-26T12:36:56.855Z,40.85
2016-02-26T12:37:56.999Z,40.95
2016-02-26T12:38:56.986Z,40.76
2016-02-26T12:39:56.971Z,40.76
2016-02-26T12:40:56.941Z,40.95
2016-02-26T12:41:56.929Z,40.76
2016-02-26T12:42:56.916Z,40.76
2016-02-26T12:43:56.903Z,40.56
2016-02-26T12:44:56.905Z,40.47
2016-02-26T12:45:56.846Z,40.66
2016-02-26T12:46:56.832Z,40.66
2016-02-26T12:47:56.820Z,40.66
2016-02-26T12:48:56.807Z,40.66
2016-02-26T12:49:56.778Z,40.66
2016-02-26T12:50:56.765Z,40.56
2016-02-26T12:51:57.362Z,40.66
2016-02-26T12:52:56.740Z,40.56
2016-02-26T12:53:56.726Z,40.47